createdAt,value
2022-10-20T07:52:18.328Z,80.82
2022-10-20T07:53:19.731Z,81.33
2022-10-20T07:54:21.056Z,80.08
2022-10-20T07:55:38.092Z,79.18
2022-10-20T07:56:42.175Z,80.79
2022-10-20T07:57:43.654Z,82.51
2022-10-20T07:58:47.727Z,81.08
2022-10-20T07:59:49.052Z,80.92
2022-10-20T08:00:50.383Z,81.91
2022-10-20T08:01:54.707Z,80.77
2022-10-20T08:02:58.924Z,79.58
2022-10-20T08:04:00.356Z,77.77
2022-10-20T08:05:01.969Z,75.76
2022-10-20T08:06:04.440Z,76.87
2022-10-20T08:07:05.799Z,77.56
2022-10-20T08:08:07.237Z,76.79
2022-10-20T08:17:11.217Z,73.34
2022-10-20T08:18:20.465Z,74.49
2022-10-20T08:20:39.952Z,72.08
2022-10-20T08:27:02.031Z,72.17
2022-10-20T08:28:03.530Z,74.20
2022-10-20T08:29:04.885Z,76.84
2022-10-20T08:30:22.860Z,77.26
2022-10-20T08:31:25.833Z,78.18
2022-10-20T08:44:06.253Z,70.16
2022-10-20T08:45:13.732Z,69.82
2022-10-20T08:46:20.351Z,66.91
2022-10-20T08:47:33.607Z,66.61
2022-10-20T08:48:35.270Z,69.25
2022-10-20T08:49:37.137Z,67.31
2022-10-20T08:50:44.810Z,65.73
2022-10-20T08:51:46.333Z,68.60
2022-10-20T08:52:56.032Z,69.41
2022-10-20T08:53:59.872Z,71.69
2022-10-20T08:55:05.057Z,71.36
2022-10-20T09:02:59.919Z,62.72
2022-10-20T09:04:15.792Z,64.49
2022-10-20T09:05:23.470Z,65.15
2022-10-20T09:06:25.812Z,63.80
2022-10-20T09:07:31.907Z,63.21
2022-10-20T09:08:37.268Z,62.56
2022-10-20T09:09:39.314Z,64.04
2022-10-20T09:10:49.965Z,66.61
2022-10-20T09:11:52.444Z,67.97
2022-10-20T09:12:53.994Z,70.42
2022-10-20T09:13:55.415Z,71.07
2022-10-20T09:14:57.380Z,70.04
2022-10-20T09:16:18.243Z,67.09
2022-10-20T09:17:28.853Z,65.86
2022-10-20T09:18:31.669Z,65.75
2022-10-20T09:19:33.118Z,67.56
2022-10-20T09:20:42.305Z,64.27
2022-10-20T09:21:45.968Z,63.50
2022-10-20T09:22:47.600Z,64.66
2022-10-20T09:23:52.410Z,64.30
2022-10-20T09:24:57.625Z,66.09
2022-10-20T09:25:58.959Z,66.38
2022-10-20T09:38:29.586Z,77.34
2022-10-20T09:39:54.985Z,77.52
2022-10-20T09:41:10.209Z,78.68
2022-10-20T09:42:15.231Z,80.14
2022-10-20T09:43:18.295Z,80.54
2022-10-20T09:44:24.430Z,81.19
2022-10-20T09:45:31.679Z,80.92
2022-10-20T09:46:43.466Z,81.08
2022-10-20T09:47:48.525Z,81.14
2022-10-20T09:48:51.013Z,81.36
2022-10-20T10:27:31.776Z,77.46
2022-10-20T10:28:40.147Z,76.27
2022-10-20T10:29:41.505Z,77.29
2022-10-20T10:30:46.814Z,78.29
2022-10-20T10:31:56.532Z,78.45
2022-10-20T10:32:57.920Z,77.32
2022-10-20T10:34:25.631Z,78.18
2022-10-20T10:35:37.296Z,79.14
2022-10-20T10:36:38.644Z,79.74
2022-10-20T10:37:43.254Z,79.56
2022-10-20T10:38:45.154Z,78.99
2022-10-20T10:39:46.579Z,79.13
2022-10-20T10:41:00.222Z,78.99
2022-10-20T10:42:19.184Z,79.62
2022-10-20T11:13:07.487Z,82.67
2022-10-20T11:14:22.812Z,82.64
2022-10-20T11:15:46.622Z,82.38
2022-10-20T11:17:00.281Z,82.98
2022-10-20T11:18:16.501Z,83.15
2022-10-20T11:19:26.977Z,82.72
2022-10-20T11:20:37.464Z,82.90
2022-10-20T11:22:05.168Z,83.52
2022-10-20T12:05:49.809Z,85.84
2022-10-20T12:07:01.249Z,85.64
2022-10-20T12:08:41.966Z,85.70
2022-10-20T12:10:02.326Z,85.55
2022-10-20T12:11:26.228Z,85.66
2022-10-20T13:09:09.463Z,84.09
2022-10-20T13:10:39.946Z,83.89
2022-10-20T13:11:45.916Z,83.65
2022-10-20T13:12:47.262Z,84.61
2022-10-20T13:14:01.549Z,84.82
2022-10-20T16:04:28.709Z,93.25
